createdAt,value
2023-01-29T00:03:44.306Z,5.20
2023-01-29T00:08:48.052Z,2.77
2023-01-29T00:13:51.847Z,4.07
2023-01-29T00:18:56.496Z,4.23
2023-01-29T00:24:00.532Z,3.33
2023-01-29T00:29:04.019Z,3.77
2023-01-29T00:34:08.679Z,6.13
2023-01-29T00:39:11.977Z,4.10
2023-01-29T00:44:32.673Z,3.53
2023-01-29T00:49:37.362Z,4.03
2023-01-29T00:54:40.685Z,3.40
2023-01-29T00:59:44.034Z,5.40
2023-01-29T01:04:48.828Z,4.93
2023-01-29T01:10:09.604Z,5.13
2023-01-29T01:15:13.247Z,4.53
2023-01-29T01:20:18.340Z,5.03
2023-01-29T01:25:22.272Z,6.30
2023-01-29T01:30:26.523Z,5.57
2023-01-29T01:35:31.245Z,6.93
2023-01-29T01:40:34.483Z,6.17
2023-01-29T01:45:38.289Z,6.83
2023-01-29T01:50:46.271Z,7.37
2023-01-29T01:55:54.395Z,4.47
2023-01-29T02:00:58.290Z,5.30
2023-01-29T02:06:20.538Z,5.23
2023-01-29T02:11:23.905Z,6.93
2023-01-29T02:16:27.956Z,6.90
2023-01-29T02:21:52.159Z,8.57
2023-01-29T02:27:05.059Z,6.70
2023-01-29T02:32:20.220Z,6.80
2023-01-29T02:37:32.315Z,5.70
2023-01-29T02:42:40.110Z,7.43
2023-01-29T02:47:50.345Z,7.13
2023-01-29T02:53:00.771Z,8.10
2023-01-29T02:58:08.871Z,8.90
2023-01-29T03:03:18.303Z,8.43
2023-01-29T03:08:37.196Z,9.80
2023-01-29T03:13:45.954Z,7.20
2023-01-29T03:18:56.267Z,7.70
2023-01-29T03:24:19.394Z,8.63
2023-01-29T03:29:40.742Z,10.90
2023-01-29T03:34:51.811Z,8.00
2023-01-29T03:39:55.982Z,9.40
2023-01-29T03:45:08.667Z,8.13
2023-01-29T03:50:28.637Z,8.40
2023-01-29T03:55:39.403Z,8.33
2023-01-29T04:00:51.861Z,9.83
2023-01-29T04:06:10.114Z,8.33
2023-01-29T04:11:18.791Z,7.90
2023-01-29T04:16:27.598Z,8.57
2023-01-29T04:21:33.051Z,8.27
2023-01-29T04:26:56.619Z,11.33
2023-01-29T04:32:11.682Z,7.70
2023-01-29T04:37:22.972Z,9.67
2023-01-29T04:42:31.593Z,8.20
2023-01-29T04:47:38.332Z,6.97
2023-01-29T04:52:51.334Z,7.80
2023-01-29T04:58:02.623Z,9.07
2023-01-29T05:03:09.849Z,8.93
2023-01-29T05:08:17.124Z,9.60
2023-01-29T05:13:23.111Z,7.37
2023-01-29T05:18:26.247Z,7.63
2023-01-29T05:23:30.755Z,8.83
2023-01-29T05:28:34.100Z,8.70
2023-01-29T05:33:37.317Z,9.50
2023-01-29T05:38:41.951Z,7.57
2023-01-29T05:43:45.065Z,6.70
2023-01-29T05:48:48.471Z,7.23
2023-01-29T05:53:53.263Z,7.20
2023-01-29T05:58:56.778Z,8.93
2023-01-29T06:04:00.117Z,7.27
2023-01-29T06:09:04.986Z,8.33
2023-01-29T06:14:08.046Z,8.00
2023-01-29T06:19:11.375Z,6.73
2023-01-29T06:24:16.205Z,9.70
2023-01-29T06:29:19.339Z,8.70
2023-01-29T06:34:22.459Z,10.17
2023-01-29T06:39:27.106Z,9.53
2023-01-29T06:44:30.341Z,10.33
2023-01-29T06:49:33.665Z,8.93
2023-01-29T06:54:38.387Z,7.40
2023-01-29T06:59:41.671Z,8.83
2023-01-29T07:04:44.736Z,7.07
2023-01-29T07:09:49.383Z,8.77
2023-01-29T07:14:52.951Z,9.30
2023-01-29T07:19:56.127Z,8.03
2023-01-29T07:25:00.866Z,7.87
2023-01-29T07:30:04.021Z,10.80
2023-01-29T07:35:08.010Z,10.10
2023-01-29T07:40:13.989Z,8.63
2023-01-29T07:45:17.263Z,9.23
2023-01-29T07:50:20.659Z,10.00
2023-01-29T07:55:26.209Z,10.33
2023-01-29T08:00:30.318Z,10.00
2023-01-29T08:05:34.383Z,10.13
2023-01-29T08:10:40.896Z,11.53
2023-01-29T08:15:45.657Z,8.63
2023-01-29T08:20:49.347Z,10.63
2023-01-29T08:25:54.250Z,10.87
2023-01-29T08:30:57.655Z,10.97
2023-01-29T08:36:00.921Z,9.17
2023-01-29T08:41:05.682Z,10.93
2023-01-29T08:46:09.255Z,11.33
2023-01-29T08:51:12.612Z,11.73
2023-01-29T08:56:17.465Z,11.23
2023-01-29T09:01:20.900Z,13.67
2023-01-29T09:06:24.107Z,13.20
2023-01-29T09:11:28.676Z,13.47
2023-01-29T09:16:31.942Z,12.40
2023-01-29T09:21:35.140Z,14.43
2023-01-29T09:26:40.447Z,11.37
2023-01-29T09:31:43.724Z,10.47
2023-01-29T09:36:47.115Z,11.67
2023-01-29T09:41:57.952Z,11.70
2023-01-29T09:47:05.033Z,11.97
2023-01-29T09:52:15.875Z,13.40
2023-01-29T09:57:28.927Z,10.77
2023-01-29T10:02:56.696Z,11.70
2023-01-29T10:08:36.004Z,12.40
2023-01-29T10:13:49.440Z,11.07
2023-01-29T10:19:18.734Z,11.77
2023-01-29T10:24:31.974Z,11.10
2023-01-29T10:29:37.064Z,10.83
2023-01-29T10:34:46.874Z,11.57
2023-01-29T10:39:50.258Z,12.57
2023-01-29T10:45:08.554Z,13.30
2023-01-29T10:50:20.256Z,12.80
2023-01-29T10:55:37.061Z,13.13
2023-01-29T11:00:42.979Z,12.00
2023-01-29T11:06:00.921Z,12.10
2023-01-29T11:11:09.907Z,11.93
2023-01-29T11:16:14.673Z,11.07
2023-01-29T11:21:17.912Z,11.90
2023-01-29T11:26:24.142Z,12.03
2023-01-29T11:31:37.235Z,12.77
2023-01-29T11:36:41.677Z,10.60
2023-01-29T11:41:46.362Z,12.33
2023-01-29T11:46:52.486Z,12.63
2023-01-29T11:51:58.394Z,9.83
2023-01-29T11:57:08.846Z,12.37
2023-01-29T12:02:28.262Z,13.13
2023-01-29T12:07:33.056Z,11.03
2023-01-29T12:12:41.833Z,9.70
2023-01-29T12:17:52.677Z,11.97
2023-01-29T12:23:04.640Z,12.30
2023-01-29T12:28:17.352Z,11.63
2023-01-29T12:33:40.035Z,10.03
2023-01-29T12:38:46.050Z,10.67
2023-01-29T12:43:52.600Z,10.27
2023-01-29T12:49:03.118Z,10.63
2023-01-29T12:54:09.694Z,11.47
2023-01-29T12:59:21.197Z,8.27
2023-01-29T13:04:35.503Z,10.43
2023-01-29T13:09:40.907Z,7.43
2023-01-29T13:14:56.577Z,8.67
2023-01-29T13:20:06.366Z,9.07
2023-01-29T13:25:16.335Z,9.20
2023-01-29T13:30:28.507Z,9.47
2023-01-29T13:35:34.522Z,9.63
2023-01-29T13:40:38.560Z,13.13
2023-01-29T13:45:45.858Z,9.73
2023-01-29T13:50:52.949Z,8.30
2023-01-29T13:55:56.496Z,7.83
2023-01-29T14:01:02.359Z,8.13
2023-01-29T14:06:07.379Z,11.40
2023-01-29T14:11:37.024Z,9.57
2023-01-29T14:16:40.429Z,8.70
2023-01-29T14:22:02.825Z,9.13
2023-01-29T14:27:21.853Z,9.00
2023-01-29T14:32:26.343Z,17.50
2023-01-29T14:37:39.534Z,11.67
2023-01-29T14:42:49.226Z,9.43
2023-01-29T14:48:30.878Z,8.73
2023-01-29T14:53:49.709Z,7.63
2023-01-29T14:58:58.619Z,8.33
2023-01-29T15:04:06.190Z,8.50
2023-01-29T15:09:16.852Z,8.47
2023-01-29T15:14:30.423Z,8.27
2023-01-29T15:19:44.853Z,8.90
2023-01-29T15:25:04.789Z,10.57
2023-01-29T15:30:19.769Z,11.13
2023-01-29T15:35:31.352Z,11.33
2023-01-29T15:40:45.119Z,9.93
2023-01-29T15:45:49.383Z,9.37
2023-01-29T15:50:59.793Z,11.07
2023-01-29T15:56:10.378Z,11.53
2023-01-29T16:01:33.254Z,8.50
2023-01-29T16:06:41.180Z,8.83
2023-01-29T16:11:50.679Z,9.57
2023-01-29T16:16:55.111Z,13.57
2023-01-29T16:22:01.689Z,11.17
2023-01-29T16:27:13.286Z,10.50
2023-01-29T16:32:23.112Z,11.50
2023-01-29T16:37:31.397Z,9.43
2023-01-29T16:42:38.135Z,13.53
2023-01-29T16:47:48.888Z,11.20
2023-01-29T16:53:02.207Z,11.63
2023-01-29T16:58:16.356Z,10.17
2023-01-29T17:03:26.289Z,11.03
2023-01-29T17:08:37.983Z,11.10
2023-01-29T17:13:45.296Z,12.63
2023-01-29T17:18:51.208Z,11.23
2023-01-29T17:23:55.601Z,9.93
2023-01-29T17:29:08.819Z,10.40
2023-01-29T17:34:19.752Z,9.47
2023-01-29T17:39:27.699Z,9.70
2023-01-29T17:44:32.685Z,8.70
2023-01-29T17:49:37.466Z,8.73
2023-01-29T17:54:43.434Z,8.83
2023-01-29T17:59:48.114Z,9.20
2023-01-29T18:04:54.284Z,9.97
2023-01-29T18:10:00.873Z,9.50
2023-01-29T18:15:05.860Z,9.33
2023-01-29T18:20:20.486Z,9.10
2023-01-29T18:25:25.579Z,8.60
2023-01-29T18:30:34.761Z,8.40
2023-01-29T18:35:44.281Z,10.60
2023-01-29T18:40:47.957Z,8.23
2023-01-29T18:46:00.848Z,8.13
2023-01-29T18:51:07.856Z,7.77
2023-01-29T18:56:11.784Z,7.37
2023-01-29T19:01:22.385Z,7.20
2023-01-29T19:06:41.343Z,6.93
2023-01-29T19:11:44.718Z,8.60
2023-01-29T19:16:52.175Z,7.90
2023-01-29T19:21:55.688Z,10.27
2023-01-29T19:27:09.457Z,7.87
2023-01-29T19:32:19.959Z,8.77
2023-01-29T19:37:23.310Z,7.73
2023-01-29T19:42:27.429Z,8.73
2023-01-29T19:47:41.908Z,8.47
2023-01-29T19:52:51.917Z,11.03
2023-01-29T19:57:58.092Z,10.47
2023-01-29T20:03:02.807Z,10.10
2023-01-29T20:08:06.211Z,11.77
2023-01-29T20:13:13.443Z,8.73
2023-01-29T20:18:18.661Z,11.17
2023-01-29T20:23:37.223Z,10.53
2023-01-29T20:28:43.345Z,10.03
2023-01-29T20:33:48.012Z,10.83
2023-01-29T20:38:57.113Z,10.43
2023-01-29T20:44:00.668Z,10.23
2023-01-29T20:49:06.914Z,10.03
2023-01-29T20:54:12.913Z,9.77
2023-01-29T20:59:16.650Z,9.77
2023-01-29T21:04:22.320Z,10.70
2023-01-29T21:09:25.565Z,10.13
2023-01-29T21:14:29.010Z,9.70
2023-01-29T21:19:34.368Z,9.03
2023-01-29T21:24:37.995Z,10.63
2023-01-29T21:29:42.005Z,9.83
2023-01-29T21:34:46.681Z,11.37
2023-01-29T21:39:49.936Z,10.40
2023-01-29T21:44:53.457Z,11.03
2023-01-29T21:49:58.035Z,8.70
2023-01-29T21:55:01.306Z,10.77
2023-01-29T22:00:04.729Z,9.50
2023-01-29T22:05:18.947Z,10.10
2023-01-29T22:10:23.518Z,10.53
2023-01-29T22:15:28.124Z,12.13
2023-01-29T22:20:32.786Z,11.87
2023-01-29T22:25:40.699Z,11.90
2023-01-29T22:30:43.920Z,12.37
2023-01-29T22:35:54.934Z,11.87
2023-01-29T22:41:05.035Z,12.03
2023-01-29T22:46:09.183Z,11.53
2023-01-29T22:51:14.576Z,13.00
2023-01-29T22:56:19.019Z,10.20
2023-01-29T23:01:23.930Z,10.17
2023-01-29T23:06:28.835Z,10.53
2023-01-29T23:11:31.963Z,12.30
2023-01-29T23:16:35.149Z,11.13
2023-01-29T23:21:40.644Z,10.50
2023-01-29T23:27:01.429Z,10.40
2023-01-29T23:32:04.713Z,12.20
2023-01-29T23:37:09.290Z,11.30
2023-01-29T23:42:12.451Z,9.90
2023-01-29T23:47:15.665Z,11.00
2023-01-29T23:52:20.350Z,9.80
2023-01-29T23:57:23.717Z,10.30
